Time;durP1;ratioP1;P1;durP2;ratioP2;P2;SDS_P1;SDS_P2;PMS_P1;PMS_P2;Temp;Humidity;BMP_temperature;BMP_pressure;BME280_temperature;BME280_humidity;BME280_pressure;Samples;Min_cycle;Max_cycle;Signal;HPM_P1;HPM_P2
2020/07/15 00:01:20;;;;;;;7.7;2.5;;;;;;;17.57;65.94141;935.7372;;;;
2020/07/15 00:03:49;;;;;;;3.9;2.2;;;;;;;17.44;65.46875;935.7852;;;;
2020/07/15 00:06:22;;;;;;;3;2;;;;;;;17.37;65.78223;935.7558;;;;
2020/07/15 00:08:48;;;;;;;3.4;2;;;;;;;17.2;66.4668;935.7234;;;;
2020/07/15 00:11:13;;;;;;;3.3;2;;;;;;;17.22;66.51563;935.6717;;;;
2020/07/15 00:13:41;;;;;;;3.4;2.1;;;;;;;17.27;66.67383;935.7272;;;;
2020/07/15 00:16:11;;;;;;;3.6;2.1;;;;;;;17.21;66.94238;935.7145;;;;
2020/07/15 00:18:37;;;;;;;3.6;2;;;;;;;17.13;67.2207;935.6694;;;;
2020/07/15 00:21:02;;;;;;;4.1;2.2;;;;;;;16.97;67.86816;935.6947;;;;
2020/07/15 00:23:27;;;;;;;7.4;2.5;;;;;;;17.01;67.98926;935.5828;;;;
2020/07/15 00:25:54;;;;;;;4.2;2.1;;;;;;;17.12;67.89063;935.6431;;;;
2020/07/15 00:28:19;;;;;;;3.2;2.3;;;;;;;17.19;67.84375;935.6078;;;;
2020/07/15 00:30:44;;;;;;;3.6;2.1;;;;;;;17.21;67.83496;935.5938;;;;
2020/07/15 00:33:09;;;;;;;3.6;2;;;;;;;17.18;67.88867;935.5854;;;;
2020/07/15 00:35:34;;;;;;;3.9;2.1;;;;;;;17.18;67.90039;935.5941;;;;
2020/07/15 00:37:59;;;;;;;5.3;2.4;;;;;;;17.26;68.27246;935.5511;;;;
2020/07/15 00:40:29;;;;;;;4.9;2.4;;;;;;;17.31;68.2793;935.5775;;;;
2020/07/15 00:42:54;;;;;;;8.6;2.6;;;;;;;17.37;67.53516;935.5255;;;;
2020/07/15 00:45:29;;;;;;;2.8;2.2;;;;;;;17.37;66.99023;935.499;;;;
2020/07/15 00:47:55;;;;;;;4.5;2;;;;;;;17.36;67.07031;935.5322;;;;
2020/07/15 00:50:20;;;;;;;3.4;2.1;;;;;;;17.37;67.7207;935.5246;;;;
2020/07/15 00:52:46;;;;;;;3.5;2.2;;;;;;;17.43;68.48438;935.5558;;;;
2020/07/15 00:55:11;;;;;;;4;2.2;;;;;;;17.27;67.72852;935.5332;;;;
2020/07/15 00:57:36;;;;;;;3.1;2.1;;;;;;;17.25;67.69238;935.5424;;;;
2020/07/15 01:00:03;;;;;;;3.4;2.2;;;;;;;17.23;68.02441;935.5154;;;;
2020/07/15 01:02:28;;;;;;;3.2;2.1;;;;;;;17.2;67.97266;935.4933;;;;
2020/07/15 01:04:53;;;;;;;4.4;2;;;;;;;17.16;68.52344;935.4997;;;;
2020/07/15 01:07:19;;;;;;;3.1;2;;;;;;;17.21;68.34473;935.4924;;;;
2020/07/15 01:09:44;;;;;;;4.5;2.1;;;;;;;17.22;68.2207;935.4763;;;;
2020/07/15 01:12:09;;;;;;;3.4;2.2;;;;;;;17.26;68.36523;935.4338;;;;
2020/07/15 01:14:35;;;;;;;9.4;3;;;;;;;17.27;68.16895;935.4109;;;;
2020/07/15 01:17:00;;;;;;;2.3;2.1;;;;;;;17.26;68.16797;935.3684;;;;
2020/07/15 01:19:28;;;;;;;3.1;2.2;;;;;;;17.24;68.31445;935.3528;;;;
2020/07/15 01:21:53;;;;;;;3.5;2.2;;;;;;;17.13;68.32227;935.3555;;;;
2020/07/15 01:24:19;;;;;;;3.2;2.1;;;;;;;17.1;68.39746;935.3571;;;;
2020/07/15 01:26:44;;;;;;;3.5;2.3;;;;;;;17.1;68.54883;935.3658;;;;
2020/07/15 01:29:10;;;;;;;4.6;2.5;;;;;;;17.13;68.78613;935.2816;;;;
2020/07/15 01:31:36;;;;;;;8.3;2.8;;;;;;;17.14;68.79883;935.2539;;;;
2020/07/15 01:34:04;;;;;;;5.2;2.3;;;;;;;17.13;68.85449;935.218;;;;
2020/07/15 01:36:29;;;;;;;4.1;2.5;;;;;;;17.16;68.90625;935.1859;;;;
2020/07/15 01:38:55;;;;;;;4.6;2.2;;;;;;;17.07;68.77637;935.1847;;;;
2020/07/15 01:41:20;;;;;;;5.9;2.4;;;;;;;16.96;69.0127;935.1616;;;;
2020/07/15 01:43:47;;;;;;;10.2;2.7;;;;;;;16.82;69.06055;935.1545;;;;
2020/07/15 01:46:16;;;;;;;6.6;2.8;;;;;;;16.82;70.0918;935.1239;;;;
2020/07/15 01:48:42;;;;;;;4.2;2.7;;;;;;;16.9;70.20898;935.1475;;;;
2020/07/15 01:51:11;;;;;;;3.6;2.3;;;;;;;16.91;69.45605;935.1474;;;;
2020/07/15 01:53:39;;;;;;;3.8;2.4;;;;;;;16.94;69.49805;935.1177;;;;
2020/07/15 01:56:04;;;;;;;4.8;2.2;;;;;;;16.99;69.52637;935.1039;;;;
2020/07/15 01:58:30;;;;;;;4.6;2.4;;;;;;;17.05;69.04004;935.0242;;;;
2020/07/15 02:00:57;;;;;;;6.3;2.6;;;;;;;17.1;69.41797;935.0884;;;;
2020/07/15 02:03:24;;;;;;;2.9;2.2;;;;;;;17.11;68.73535;935.0897;;;;
2020/07/15 02:05:49;;;;;;;4.5;2.5;;;;;;;17.08;69.62305;935.0758;;;;
2020/07/15 02:08:14;;;;;;;4.7;2.3;;;;;;;17.04;69.36328;935.0316;;;;
2020/07/15 02:10:45;;;;;;;4.8;2.7;;;;;;;16.91;69.56055;935.0349;;;;
2020/07/15 02:13:10;;;;;;;3;2.4;;;;;;;16.85;69.88867;935.0818;;;;
2020/07/15 02:15:40;;;;;;;3.7;2.3;;;;;;;16.85;69.98145;935.0303;;;;
2020/07/15 02:18:09;;;;;;;3.1;2.4;;;;;;;16.84;70.1543;935.0617;;;;
2020/07/15 02:20:33;;;;;;;4.4;2.4;;;;;;;16.79;70.21484;935.0151;;;;
2020/07/15 02:22:59;;;;;;;7.1;2.6;;;;;;;16.83;70.02344;935.0485;;;;
2020/07/15 02:25:24;;;;;;;6.7;3;;;;;;;16.83;69.90918;935.0089;;;;
2020/07/15 02:27:50;;;;;;;6.2;2.6;;;;;;;16.84;70.0957;935.0425;;;;
2020/07/15 02:30:15;;;;;;;7.2;2.6;;;;;;;16.87;70.01953;935.0211;;;;
2020/07/15 02:32:42;;;;;;;5.9;2.6;;;;;;;16.86;70.0293;934.997;;;;
2020/07/15 02:35:07;;;;;;;3.9;2.4;;;;;;;16.86;70.22656;935.0742;;;;
2020/07/15 02:37:33;;;;;;;4.7;2.4;;;;;;;16.82;70.46387;935.051;;;;
2020/07/15 02:39:58;;;;;;;4.2;2.5;;;;;;;16.77;70.53613;935.0485;;;;
2020/07/15 02:42:25;;;;;;;4.8;2.3;;;;;;;16.6;71.3418;934.9964;;;;
2020/07/15 02:44:50;;;;;;;4.8;2.9;;;;;;;16.58;72.54297;935.0362;;;;
2020/07/15 02:47:17;;;;;;;4.4;2.4;;;;;;;16.65;71.8125;935.0377;;;;
2020/07/15 02:49:42;;;;;;;3.4;2.7;;;;;;;16.72;72.10254;935.0608;;;;
2020/07/15 02:52:09;;;;;;;4.5;2.8;;;;;;;16.69;72.04004;935.0307;;;;
2020/07/15 02:54:35;;;;;;;4.1;2.6;;;;;;;16.73;71.82617;934.9963;;;;
2020/07/15 02:57:00;;;;;;;5;2.4;;;;;;;16.73;71.14258;935.0677;;;;
2020/07/15 02:59:26;;;;;;;5.1;2.5;;;;;;;16.64;70.68945;935.0281;;;;
2020/07/15 03:01:56;;;;;;;6.5;2.7;;;;;;;16.54;70.89355;935.0642;;;;
2020/07/15 03:04:22;;;;;;;6.6;2.6;;;;;;;16.48;71.71484;935.0695;;;;
2020/07/15 03:06:49;;;;;;;3.7;2.2;;;;;;;16.47;71.19238;935.0528;;;;
2020/07/15 03:09:14;;;;;;;4.8;2.8;;;;;;;16.44;71.58203;935.0767;;;;
2020/07/15 03:11:40;;;;;;;5.7;2.7;;;;;;;16.32;71.73438;935.0737;;;;
2020/07/15 03:14:05;;;;;;;4.2;2.5;;;;;;;16.24;71.78125;935.026;;;;
2020/07/15 03:16:30;;;;;;;5.3;2.5;;;;;;;16.29;71.82324;935.0397;;;;
2020/07/15 03:18:56;;;;;;;3.8;2.4;;;;;;;16.36;71.07129;934.975;;;;
2020/07/15 03:21:21;;;;;;;3.7;2.4;;;;;;;16.42;71.90332;934.9974;;;;
2020/07/15 03:23:47;;;;;;;5.7;2.5;;;;;;;16.5;72.28516;934.9494;;;;
2020/07/15 03:26:12;;;;;;;6.2;2.6;;;;;;;16.5;70.78027;934.963;;;;
2020/07/15 03:28:40;;;;;;;3.5;2.2;;;;;;;16.43;70.71289;934.8953;;;;
2020/07/15 03:31:05;;;;;;;2.9;2.3;;;;;;;16.47;70.31348;934.9008;;;;
2020/07/15 03:33:32;;;;;;;4.1;2.2;;;;;;;16.28;72.20508;934.9144;;;;
2020/07/15 03:35:57;;;;;;;3.7;2.4;;;;;;;16.35;72.01855;934.8594;;;;
2020/07/15 03:38:23;;;;;;;5.2;2.8;;;;;;;16.2;71.7041;934.8312;;;;
2020/07/15 03:40:53;;;;;;;4;2.8;;;;;;;16.17;72.46191;934.8375;;;;
2020/07/15 03:43:19;;;;;;;3.7;2.7;;;;;;;16.21;72.28418;934.848;;;;
2020/07/15 03:45:50;;;;;;;4.6;2.5;;;;;;;16.25;72.34961;934.8491;;;;
2020/07/15 03:49:20;;;;;;;4.4;2.6;;;;;;;16.32;72.75488;934.9258;;;;
2020/07/15 03:51:48;;;;;;;6.9;3;;;;;;;16.34;73.04688;934.8797;;;;
2020/07/15 03:54:14;;;;;;;6.9;2.9;;;;;;;16.28;72.6084;934.8798;;;;
2020/07/15 03:56:39;;;;;;;6.8;2.8;;;;;;;16.23;72.84375;934.8896;;;;
2020/07/15 03:59:08;;;;;;;5;2.8;;;;;;;16.21;72.5498;934.8881;;;;
2020/07/15 04:02:36;;;;;;;3.4;2.6;;;;;;;16.13;72.87305;934.8773;;;;
2020/07/15 04:05:12;;;;;;;5.7;2.8;;;;;;;16.04;73.18066;934.8775;;;;
2020/07/15 04:07:38;;;;;;;7.1;3.1;;;;;;;15.86;74.00684;934.8961;;;;
2020/07/15 04:10:24;;;;;;;3.8;2.6;;;;;;;15.91;73.63379;934.9323;;;;
2020/07/15 04:12:32;;;;;;;5.2;3;;;;;;;15.99;74.52539;934.8836;;;;
2020/07/15 04:19:54;;;;;;;4.8;2.6;;;;;;;16.1;73.18066;934.8859;;;;
2020/07/15 04:22:18;;;;;;;4.2;2.5;;;;;;;16.15;73.41992;934.8353;;;;
2020/07/15 04:24:56;;;;;;;5.9;2.6;;;;;;;16.21;72.61914;934.8945;;;;
2020/07/15 04:27:09;;;;;;;6.8;3.1;;;;;;;16.31;73.33105;934.9444;;;;
2020/07/15 04:29:52;;;;;;;11.9;3.4;;;;;;;16.4;72.22266;934.9919;;;;
2020/07/15 04:32:35;;;;;;;13;3.4;;;;;;;16.53;71.93359;935.0234;;;;
2020/07/15 04:35:02;;;;;;;7;3;;;;;;;16.58;71.18848;935.008;;;;
2020/07/15 04:38:41;;;;;;;9.5;3.7;;;;;;;16.65;72.25293;935.0441;;;;
2020/07/15 04:41:14;;;;;;;11;3.4;;;;;;;16.7;71.26563;935.0176;;;;
2020/07/15 04:43:43;;;;;;;4.3;2.5;;;;;;;16.64;70.9209;934.9839;;;;
2020/07/15 04:46:14;;;;;;;6.6;3.2;;;;;;;16.66;72.71875;934.9871;;;;
2020/07/15 04:48:59;;;;;;;4.1;2.7;;;;;;;16.75;72.16504;935.0255;;;;
2020/07/15 04:51:24;;;;;;;4.8;2.8;;;;;;;16.91;72.43359;934.9528;;;;
2020/07/15 04:53:57;;;;;;;5.5;2.8;;;;;;;16.98;70.96387;935.0228;;;;
2020/07/15 04:56:22;;;;;;;6.3;2.5;;;;;;;17.11;69.80176;935.0496;;;;
2020/07/15 04:58:47;;;;;;;5.7;2.7;;;;;;;17.2;69.92188;934.9872;;;;
2020/07/15 05:01:13;;;;;;;12.9;3.3;;;;;;;17.25;68.9082;935.0002;;;;
2020/07/15 05:03:47;;;;;;;12.6;3.8;;;;;;;17.17;68.96582;934.975;;;;
2020/07/15 05:06:15;;;;;;;6.7;3.1;;;;;;;17.14;71.18555;935.0657;;;;
2020/07/15 05:08:43;;;;;;;8.3;2.8;;;;;;;17.27;69.41016;935.0577;;;;
2020/07/15 05:11:15;;;;;;;4.3;3;;;;;;;17.37;71.57129;935.0844;;;;
2020/07/15 05:14:03;;;;;;;10.4;3.1;;;;;;;17.52;70.80762;935.0572;;;;
2020/07/15 05:16:53;;;;;;;7.6;2.8;;;;;;;17.57;68.65625;935.04;;;;
2020/07/15 05:19:26;;;;;;;5.7;2.4;;;;;;;17.7;68.46777;935.0916;;;;
2020/07/15 05:23:43;;;;;;;5.9;2.6;;;;;;;17.95;66.55566;935.1351;;;;
2020/07/15 05:26:19;;;;;;;5.6;2.7;;;;;;;18.16;65.30957;935.1506;;;;
2020/07/15 05:28:45;;;;;;;6.5;2.7;;;;;;;18.15;68.41016;935.1886;;;;
2020/07/15 05:31:11;;;;;;;5.5;2.4;;;;;;;18.26;65.60254;935.0952;;;;
2020/07/15 05:33:35;;;;;;;9.1;2.5;;;;;;;18.4;66.0791;935.1713;;;;
2020/07/15 05:36:00;;;;;;;5.1;2;;;;;;;18.41;64.45117;935.1566;;;;
2020/07/15 05:38:25;;;;;;;4;2;;;;;;;18.62;62.8418;935.1853;;;;
2020/07/15 05:40:52;;;;;;;5;2.3;;;;;;;18.87;65.50781;935.2206;;;;
2020/07/15 05:43:20;;;;;;;5;2.3;;;;;;;19.11;64.33301;935.2231;;;;
2020/07/15 05:45:48;;;;;;;6.2;1.9;;;;;;;19.24;63.41992;935.2439;;;;
2020/07/15 05:48:32;;;;;;;3.6;1.8;;;;;;;19.21;61.15527;935.2009;;;;
2020/07/15 05:51:00;;;;;;;4.9;1.8;;;;;;;19.28;62.26074;935.2848;;;;
2020/07/15 05:53:25;;;;;;;2.4;1.8;;;;;;;19.29;60.25879;935.2958;;;;
2020/07/15 05:55:50;;;;;;;2.5;1.8;;;;;;;19.25;61.7207;935.3147;;;;
2020/07/15 05:58:15;;;;;;;2.3;1.8;;;;;;;19.29;62.22754;935.3491;;;;
2020/07/15 06:00:44;;;;;;;2.5;1.7;;;;;;;19.19;63.21582;935.3444;;;;
2020/07/15 06:03:10;;;;;;;4.8;2;;;;;;;19.23;63.21973;935.4057;;;;
2020/07/15 06:05:39;;;;;;;3.6;1.9;;;;;;;19.29;61.00488;935.4305;;;;
2020/07/15 06:08:04;;;;;;;6.6;1.9;;;;;;;19.3;61.33105;935.4642;;;;
2020/07/15 06:10:29;;;;;;;7.7;2;;;;;;;19.16;62.82715;935.5033;;;;
2020/07/15 06:12:54;;;;;;;4.2;2.2;;;;;;;19.1;64.61035;935.5761;;;;
2020/07/15 06:15:22;;;;;;;3.4;2.2;;;;;;;19.12;64.21777;935.5844;;;;
2020/07/15 06:17:47;;;;;;;3.5;2.3;;;;;;;19.21;64.75586;935.5432;;;;
2020/07/15 06:20:14;;;;;;;4.4;2.4;;;;;;;19.23;66.15723;935.6275;;;;
2020/07/15 06:22:39;;;;;;;4.4;2.3;;;;;;;19.16;67.18164;935.6478;;;;
2020/07/15 06:25:04;;;;;;;4.9;2.4;;;;;;;18.98;67.79395;935.6542;;;;
2020/07/15 06:27:44;;;;;;;4.8;2.7;;;;;;;18.81;69.97949;935.622;;;;
2020/07/15 06:30:15;;;;;;;6.4;2.8;;;;;;;18.62;70.05469;935.6727;;;;
2020/07/15 06:32:43;;;;;;;7.8;3.2;;;;;;;18.39;70.52832;935.6699;;;;
2020/07/15 06:35:13;;;;;;;7.6;3.1;;;;;;;18.35;68.97559;935.7079;;;;
2020/07/15 06:37:38;;;;;;;7.6;2.9;;;;;;;18.35;69.88379;935.7562;;;;
2020/07/15 06:40:03;;;;;;;6.9;3.1;;;;;;;18.46;69.5752;935.7078;;;;
2020/07/15 06:42:28;;;;;;;8.3;3.1;;;;;;;18.6;69.50391;935.7665;;;;
2020/07/15 06:44:54;;;;;;;8;2.7;;;;;;;18.67;67.44434;935.762;;;;
2020/07/15 06:47:18;;;;;;;7.3;2.8;;;;;;;18.72;68.16113;935.7753;;;;
2020/07/15 06:49:43;;;;;;;3.8;2.6;;;;;;;18.76;68.04004;935.783;;;;
2020/07/15 06:52:09;;;;;;;8.7;2.7;;;;;;;18.9;68.00293;935.7845;;;;
2020/07/15 06:54:34;;;;;;;7.3;2.7;;;;;;;19.07;67.36719;935.8019;;;;
2020/07/15 06:56:59;;;;;;;7;2.6;;;;;;;19.23;67.29688;935.7511;;;;
2020/07/15 06:59:24;;;;;;;8.3;2.6;;;;;;;19.51;66.05664;935.8017;;;;
2020/07/15 07:01:49;;;;;;;5.4;2.4;;;;;;;19.84;62.67871;935.8194;;;;
2020/07/15 07:04:17;;;;;;;4.9;2.5;;;;;;;20.51;60.65918;935.8295;;;;
2020/07/15 07:06:42;;;;;;;6.3;2.3;;;;;;;21.32;58.14941;935.8436;;;;
2020/07/15 07:09:13;;;;;;;6.3;2.2;;;;;;;21.22;58.00781;935.8409;;;;
2020/07/15 07:11:42;;;;;;;4.6;2.2;;;;;;;21.01;57.07813;935.836;;;;
2020/07/15 07:14:07;;;;;;;4.1;2;;;;;;;20.91;59.73145;935.8555;;;;
2020/07/15 07:16:34;;;;;;;6.3;2.1;;;;;;;20.8;58.75879;935.838;;;;
2020/07/15 07:18:59;;;;;;;4;2.3;;;;;;;20.84;58.49609;935.8125;;;;
2020/07/15 07:21:24;;;;;;;4.8;2.2;;;;;;;20.8;59.26172;935.8337;;;;
2020/07/15 07:23:49;;;;;;;4.8;2.3;;;;;;;20.62;60.80273;935.8333;;;;
2020/07/15 07:27:21;;;;;;;5.2;2.2;;;;;;;20.59;60.29688;935.8632;;;;
2020/07/15 07:30:01;;;;;;;6.5;2.2;;;;;;;20.57;60.9248;935.8646;;;;
2020/07/15 07:32:26;;;;;;;5.2;2;;;;;;;20.5;60.9502;935.8961;;;;
2020/07/15 07:34:53;;;;;;;4.6;2.3;;;;;;;20.53;57.6582;935.8816;;;;
2020/07/15 07:37:18;;;;;;;5.9;2.3;;;;;;;20.53;57.2627;935.9017;;;;
2020/07/15 07:39:44;;;;;;;4.2;2.3;;;;;;;20.47;57.82617;935.9733;;;;
2020/07/15 07:42:10;;;;;;;4.6;2.2;;;;;;;20.43;59.21289;935.967;;;;
2020/07/15 07:44:35;;;;;;;4.4;2.3;;;;;;;20.42;58.37012;935.9771;;;;
2020/07/15 07:47:00;;;;;;;4.8;2.2;;;;;;;20.43;59.61035;935.9978;;;;
2020/07/15 07:49:25;;;;;;;4.8;2.1;;;;;;;20.35;61.08203;936.0344;;;;
2020/07/15 07:51:53;;;;;;;5;2.3;;;;;;;20.45;59.31934;935.9778;;;;
2020/07/15 07:54:18;;;;;;;5.4;2.3;;;;;;;20.53;58.87305;936.032;;;;
2020/07/15 07:56:47;;;;;;;3.8;2.2;;;;;;;20.5;59.11523;936.0596;;;;
2020/07/15 07:59:54;;;;;;;4.6;2.3;;;;;;;20.52;59.15332;936.024;;;;
2020/07/15 08:01:44;;;;;;;4.3;2.3;;;;;;;20.35;60.74219;936.092;;;;
2020/07/15 08:04:10;;;;;;;5.1;2.2;;;;;;;20.25;57.49512;936.0797;;;;
2020/07/15 08:06:39;;;;;;;5.2;2.2;;;;;;;20.34;56.52539;936.1181;;;;
2020/07/15 08:09:34;;;;;;;4.2;2.1;;;;;;;20.31;58.75195;936.1516;;;;
2020/07/15 08:12:00;;;;;;;5.1;2.2;;;;;;;20.21;58.40039;936.1213;;;;
2020/07/15 08:14:25;;;;;;;3.4;2.5;;;;;;;20.09;60.28613;936.1799;;;;
2020/07/15 08:16:52;;;;;;;4.2;2.2;;;;;;;20.12;57.0332;936.1872;;;;
2020/07/15 08:19:20;;;;;;;5.4;2.4;;;;;;;20.14;59.27832;936.1331;;;;
2020/07/15 08:21:45;;;;;;;4.3;2.3;;;;;;;20.09;58.80371;936.1445;;;;
2020/07/15 08:24:10;;;;;;;6.6;2.4;;;;;;;20.08;57.64746;936.1625;;;;
2020/07/15 08:26:35;;;;;;;2.9;2.2;;;;;;;20.15;60.19043;936.1609;;;;
2020/07/15 08:29:00;;;;;;;4.5;2.6;;;;;;;20.09;60.34473;936.117;;;;
2020/07/15 08:31:25;;;;;;;7.1;2.8;;;;;;;20.05;62.48633;936.0848;;;;
2020/07/15 08:33:50;;;;;;;6.5;2.7;;;;;;;20.01;64.05566;936.0308;;;;
2020/07/15 08:36:18;;;;;;;4.3;2.5;;;;;;;19.88;63.11523;936.0728;;;;
2020/07/15 08:38:43;;;;;;;4;2.6;;;;;;;19.81;64.52832;936.005;;;;
2020/07/15 08:41:08;;;;;;;4.8;2.8;;;;;;;19.83;66.1416;936.1082;;;;
2020/07/15 08:43:33;;;;;;;4;2.6;;;;;;;19.91;63.99414;936.067;;;;
2020/07/15 08:46:01;;;;;;;5;2.7;;;;;;;19.96;63.78027;936.0381;;;;
2020/07/15 08:48:26;;;;;;;3.3;2.8;;;;;;;20;67.34473;936.062;;;;
2020/07/15 08:50:53;;;;;;;5.9;3.2;;;;;;;19.9;68.15723;936.1005;;;;
2020/07/15 08:53:18;;;;;;;3.9;2.5;;;;;;;19.78;65.56152;936.0278;;;;
2020/07/15 08:55:44;;;;;;;5.7;3.1;;;;;;;19.67;67.77441;936.0947;;;;
2020/07/15 08:58:10;;;;;;;5.9;2.9;;;;;;;19.61;67.68164;936.0267;;;;
2020/07/15 09:00:35;;;;;;;7.1;2.9;;;;;;;19.61;66.77246;936.0825;;;;
2020/07/15 09:03:04;;;;;;;4.5;3.1;;;;;;;19.72;66.2168;936.1057;;;;
2020/07/15 09:05:29;;;;;;;5.7;2.8;;;;;;;19.78;66.43652;936.1465;;;;
2020/07/15 09:07:55;;;;;;;6.4;2.9;;;;;;;19.83;67.00488;936.1752;;;;
2020/07/15 09:10:20;;;;;;;5.3;2.9;;;;;;;19.69;66.94727;936.1564;;;;
2020/07/15 09:12:50;;;;;;;7.1;2.6;;;;;;;19.76;63.85547;936.1972;;;;
2020/07/15 09:15:15;;;;;;;9;3.3;;;;;;;19.9;65.77734;936.1861;;;;
2020/07/15 09:17:42;;;;;;;7.3;3;;;;;;;19.48;69.11719;936.233;;;;
2020/07/15 09:20:07;;;;;;;6.8;2.9;;;;;;;19.17;71.01367;936.22;;;;
2020/07/15 09:22:32;;;;;;;3.1;2.7;;;;;;;18.97;71.80859;936.2548;;;;
2020/07/15 09:24:58;;;;;;;5.4;2.9;;;;;;;18.89;71.58594;936.2575;;;;
2020/07/15 09:27:23;;;;;;;6.9;2.9;;;;;;;18.77;71.67285;936.2514;;;;
2020/07/15 09:29:49;;;;;;;5.2;3;;;;;;;18.84;70.36816;936.2573;;;;
2020/07/15 09:32:13;;;;;;;5.3;2.6;;;;;;;18.86;69.04492;936.252;;;;
2020/07/15 09:34:41;;;;;;;4.4;3.3;;;;;;;18.97;70.83105;936.1483;;;;
2020/07/15 09:37:06;;;;;;;3.8;2.7;;;;;;;19.15;70.33691;936.1936;;;;
2020/07/15 09:39:32;;;;;;;5.2;3;;;;;;;19.31;70.30371;936.1638;;;;
2020/07/15 09:41:57;;;;;;;4.5;2.9;;;;;;;19.19;70.94824;936.0836;;;;
2020/07/15 09:44:22;;;;;;;5.8;3.3;;;;;;;19.49;71.06641;935.9766;;;;
2020/07/15 09:49:12;;;;;;;5.8;3;;;;;;;19.96;68.68066;935.9598;;;;
2020/07/15 09:51:38;;;;;;;4.1;2.8;;;;;;;20.07;64.37988;935.9096;;;;
2020/07/15 09:54:04;;;;;;;4.1;2.8;;;;;;;20.35;66.04297;935.9658;;;;
2020/07/15 09:56:29;;;;;;;4;2.7;;;;;;;20.54;62.22852;935.9111;;;;
2020/07/15 09:58:54;;;;;;;4.3;2.6;;;;;;;20.35;60.77734;935.9416;;;;
2020/07/15 10:01:19;;;;;;;9.7;3.2;;;;;;;20.39;62.34668;935.9267;;;;
2020/07/15 10:03:44;;;;;;;6.8;2.8;;;;;;;20.58;63.95215;935.9192;;;;
2020/07/15 10:06:10;;;;;;;7.5;3;;;;;;;20.73;62.9209;935.9648;;;;
2020/07/15 10:08:51;;;;;;;7.7;3.3;;;;;;;20.99;63.75391;935.8649;;;;
2020/07/15 16:08:24;;;;;;;5.9;2.9;;;;;;;21.32;66.11719;936.0123;;;;
2020/07/15 16:10:49;;;;;;;2.2;1.9;;;;;;;21.17;66.57422;936.0388;;;;
2020/07/15 16:13:14;;;;;;;4.6;3;;;;;;;21.05;67.18945;936.1085;;;;
2020/07/15 16:15:42;;;;;;;5.5;3.7;;;;;;;20.61;69.12207;936.2095;;;;
2020/07/15 16:18:09;;;;;;;3.4;2.7;;;;;;;20.8;69.62891;936.2723;;;;
2020/07/15 16:20:34;;;;;;;3.9;2.9;;;;;;;20.86;70.56152;936.2936;;;;
2020/07/15 16:23:03;;;;;;;6.4;2.3;;;;;;;20.62;70.87402;936.3552;;;;
2020/07/15 16:25:28;;;;;;;2.4;1.9;;;;;;;20.63;68.70215;936.3557;;;;
2020/07/15 16:27:53;;;;;;;5.8;2.4;;;;;;;20.52;72.7627;936.3823;;;;
2020/07/15 16:30:32;;;;;;;6;2.6;;;;;;;20.33;71.41211;936.3127;;;;
2020/07/15 16:32:57;;;;;;;4.4;2.6;;;;;;;20.26;72.15918;936.3522;;;;
2020/07/15 16:35:24;;;;;;;4.7;2.9;;;;;;;20.37;74.10352;936.2912;;;;
2020/07/15 16:37:49;;;;;;;5.2;2.9;;;;;;;20.42;74.96387;936.3522;;;;
2020/07/15 16:40:24;;;;;;;5.9;2.6;;;;;;;20.36;75.56152;936.3901;;;;
2020/07/15 16:42:50;;;;;;;4.3;2.9;;;;;;;20.42;75.65234;936.3943;;;;
2020/07/15 16:45:24;;;;;;;3.9;2.8;;;;;;;20.47;76.14258;936.3993;;;;
2020/07/15 16:47:54;;;;;;;4.6;2.9;;;;;;;20.4;74.59863;936.4286;;;;
2020/07/15 16:50:19;;;;;;;4.3;2.9;;;;;;;20.27;73.90039;936.3558;;;;
2020/07/15 16:52:46;;;;;;;3.9;3;;;;;;;20.32;76.12793;936.4617;;;;
2020/07/15 16:55:11;;;;;;;4.5;2.9;;;;;;;20.33;76.07031;936.4874;;;;
2020/07/15 16:57:39;;;;;;;3.2;2.5;;;;;;;20.09;75.91211;936.5389;;;;
2020/07/15 17:00:03;;;;;;;3;2.7;;;;;;;19.62;77.86133;936.639;;;;
2020/07/15 17:02:29;;;;;;;4;2.8;;;;;;;19.77;77.35059;936.6026;;;;
2020/07/15 17:04:55;;;;;;;3.7;2.5;;;;;;;19.66;78.60059;936.6688;;;;
2020/07/15 17:07:20;;;;;;;3.9;2.7;;;;;;;19.78;77.87695;936.6945;;;;
2020/07/15 17:09:46;;;;;;;6.2;2.7;;;;;;;19.81;77.89355;936.7428;;;;
2020/07/15 17:12:11;;;;;;;3.8;2.8;;;;;;;19.98;76.79199;936.7787;;;;
2020/07/15 17:14:36;;;;;;;3.9;3;;;;;;;19.97;76.98828;936.8031;;;;
2020/07/15 17:19:26;;;;;;;5;2.9;;;;;;;19.68;76.76367;936.9962;;;;
2020/07/15 17:21:51;;;;;;;2.6;2.2;;;;;;;19.48;74.2002;937.0518;;;;
2020/07/15 17:24:18;;;;;;;3.5;1.9;;;;;;;19.1;73.39063;937.1766;;;;
2020/07/15 17:26:42;;;;;;;2.6;1.6;;;;;;;18.98;72.84766;937.1542;;;;
2020/07/15 17:29:08;;;;;;;2.9;1.5;;;;;;;18.89;73.23828;937.0886;;;;
2020/07/15 17:31:33;;;;;;;1.5;1.2;;;;;;;18.83;72.66113;937.0747;;;;
2020/07/15 17:33:58;;;;;;;5;1.4;;;;;;;18.49;72.42871;937.0465;;;;
2020/07/15 17:36:25;;;;;;;2.2;1.5;;;;;;;18.16;73.91895;937.1928;;;;
2020/07/15 17:38:50;;;;;;;2.5;1.7;;;;;;;17.89;74.98926;937.177;;;;
2020/07/15 17:41:16;;;;;;;2.5;1.5;;;;;;;17.47;77.31836;937.166;;;;
2020/07/15 17:43:43;;;;;;;3.5;1.5;;;;;;;17.48;78.15527;937.181;;;;
2020/07/15 17:46:08;;;;;;;2.9;1.5;;;;;;;17.07;79.86816;937.191;;;;
2020/07/15 17:48:34;;;;;;;2.6;1.7;;;;;;;17.49;79.00391;937.2188;;;;
2020/07/15 17:50:59;;;;;;;3.6;1.6;;;;;;;17.77;77.3125;937.2179;;;;
2020/07/15 17:53:26;;;;;;;2.3;1.5;;;;;;;17.83;77.06836;937.2469;;;;
2020/07/15 17:55:51;;;;;;;1.9;1.5;;;;;;;17.89;77.26563;937.2859;;;;
2020/07/15 17:58:18;;;;;;;3.4;1.6;;;;;;;17.96;75.86133;937.2925;;;;
2020/07/15 18:00:43;;;;;;;2;1.3;;;;;;;18.2;75.66895;937.3078;;;;
2020/07/15 18:03:12;;;;;;;2;1.4;;;;;;;18.21;75.49609;937.3689;;;;
2020/07/15 18:05:37;;;;;;;3.1;1.6;;;;;;;18.12;76.28418;937.387;;;;
2020/07/15 18:08:03;;;;;;;3.3;1.6;;;;;;;18.14;76.79688;937.4003;;;;
2020/07/15 18:10:31;;;;;;;1.9;1.6;;;;;;;17.83;76.81348;937.3394;;;;
2020/07/15 18:12:56;;;;;;;2.6;1.6;;;;;;;17.87;75.9834;937.308;;;;
2020/07/15 18:15:21;;;;;;;2.5;1.8;;;;;;;18;75.4248;937.4127;;;;
2020/07/15 18:17:47;;;;;;;2.2;1.3;;;;;;;18;76.05176;937.3917;;;;
2020/07/15 18:20:12;;;;;;;3.6;1.9;;;;;;;17.85;76.97852;937.3906;;;;
2020/07/15 18:22:39;;;;;;;3.2;2.1;;;;;;;17.89;76.5459;937.3471;;;;
2020/07/15 18:25:04;;;;;;;3;2.2;;;;;;;18.01;77.17969;937.3786;;;;
2020/07/15 18:27:30;;;;;;;3.8;1.9;;;;;;;17.94;77.08887;937.3839;;;;
2020/07/15 18:29:55;;;;;;;2.2;1.9;;;;;;;17.9;77.02344;937.4193;;;;
2020/07/15 18:32:25;;;;;;;2.1;1.9;;;;;;;17.97;77.29004;937.4487;;;;
2020/07/15 18:34:53;;;;;;;2.3;1.9;;;;;;;17.96;77.03223;937.448;;;;
2020/07/15 18:37:18;;;;;;;2.5;1.6;;;;;;;17.99;76.8877;937.5344;;;;
2020/07/15 18:39:44;;;;;;;2.1;1.9;;;;;;;18.08;75.87012;937.5327;;;;
2020/07/15 18:42:09;;;;;;;2.2;1.9;;;;;;;18.21;76.90234;937.5575;;;;
2020/07/15 18:44:34;;;;;;;2.1;1.6;;;;;;;18.09;76.62598;937.5641;;;;
2020/07/15 18:46:59;;;;;;;2.6;1.8;;;;;;;17.74;77.14551;937.5399;;;;
2020/07/15 18:49:26;;;;;;;3.1;2.2;;;;;;;17.76;78.87988;937.5869;;;;
2020/07/15 18:51:51;;;;;;;2.5;2.2;;;;;;;17.87;78.75977;937.6631;;;;
2020/07/15 18:54:19;;;;;;;3.3;2.1;;;;;;;17.9;78.93945;937.5636;;;;
2020/07/15 18:56:44;;;;;;;3.9;2.3;;;;;;;18.04;77.96582;937.6512;;;;
2020/07/15 18:59:11;;;;;;;4.5;2.4;;;;;;;18.08;77.99609;937.673;;;;
2020/07/15 19:01:36;;;;;;;5.1;2.5;;;;;;;18.1;78.42871;937.6389;;;;
2020/07/15 19:04:04;;;;;;;3.9;2.5;;;;;;;17.99;78.89746;937.7608;;;;
2020/07/15 19:06:28;;;;;;;2.8;2.3;;;;;;;18.09;78.4043;937.8333;;;;
2020/07/15 19:08:54;;;;;;;3.5;2.2;;;;;;;18.14;77.01758;937.8315;;;;
2020/07/15 19:11:19;;;;;;;3.1;2.5;;;;;;;18.15;77.84375;937.799;;;;
2020/07/15 19:13:59;;;;;;;2.6;2.3;;;;;;;18.16;77.94043;937.8858;;;;
2020/07/15 19:16:12;;;;;;;4;2.4;;;;;;;18.21;77.73926;937.9484;;;;
2020/07/15 19:18:42;;;;;;;3.4;2.5;;;;;;;18.01;79.06348;937.9634;;;;
2020/07/15 19:21:11;;;;;;;4.8;2.6;;;;;;;18.05;78.60449;938.0161;;;;
2020/07/15 19:23:36;;;;;;;4.3;2.6;;;;;;;17.94;78.93555;938.0227;;;;
2020/07/15 19:26:09;;;;;;;4.2;2.8;;;;;;;18.05;78.26758;938.1274;;;;
2020/07/15 19:28:36;;;;;;;4.6;2.9;;;;;;;18.04;78.6748;938.1646;;;;
2020/07/15 19:31:01;;;;;;;4.7;2.7;;;;;;;17.97;79.27734;938.2131;;;;
2020/07/15 19:33:34;;;;;;;4.4;2.9;;;;;;;17.76;80.2832;938.1685;;;;
2020/07/15 19:35:59;;;;;;;6.1;3.2;;;;;;;17.78;80.10059;938.2335;;;;
2020/07/15 19:38:28;;;;;;;3.5;2.6;;;;;;;17.92;79.33691;938.3141;;;;
2020/07/15 19:40:58;;;;;;;3.7;3;;;;;;;17.87;79.3623;938.3022;;;;
2020/07/15 19:43:25;;;;;;;5.5;3.1;;;;;;;17.86;79.83789;938.3336;;;;
2020/07/15 19:45:55;;;;;;;3.1;2.7;;;;;;;17.85;79.73047;938.338;;;;
2020/07/15 19:48:19;;;;;;;4.1;3;;;;;;;17.74;80.60449;938.3638;;;;
2020/07/15 19:50:44;;;;;;;5.2;2.8;;;;;;;17.64;79.9248;938.3741;;;;
2020/07/15 19:53:09;;;;;;;3.4;2.7;;;;;;;17.59;79.55566;938.4238;;;;
2020/07/15 19:55:34;;;;;;;2.3;2.1;;;;;;;17.38;79.81934;938.3942;;;;
2020/07/15 19:58:01;;;;;;;2.5;2.1;;;;;;;17.27;80.41602;938.465;;;;
2020/07/15 20:00:29;;;;;;;2.5;2.1;;;;;;;17.16;80.43945;938.4972;;;;
2020/07/15 20:02:57;;;;;;;1.8;1.6;;;;;;;17.31;79.69043;938.5667;;;;
2020/07/15 20:05:23;;;;;;;2.1;1.9;;;;;;;17.37;79.36523;938.5786;;;;
2020/07/15 20:07:47;;;;;;;2.1;1.7;;;;;;;17.31;79.4834;938.5995;;;;
2020/07/15 20:10:15;;;;;;;2.7;1.6;;;;;;;17.34;79.47461;938.5405;;;;
2020/07/15 20:12:41;;;;;;;2.1;1.6;;;;;;;17.31;79.55273;938.5851;;;;
2020/07/15 20:15:07;;;;;;;1.9;1.5;;;;;;;17.38;79.21777;938.6138;;;;
2020/07/15 20:17:32;;;;;;;2.4;1.5;;;;;;;17.43;78.69238;938.668;;;;
2020/07/15 20:19:58;;;;;;;1.8;1.4;;;;;;;17.17;79.61914;938.6892;;;;
2020/07/15 20:22:23;;;;;;;1.4;1.3;;;;;;;17;79.88965;938.66;;;;
2020/07/15 20:24:50;;;;;;;2.6;1.2;;;;;;;16.7;80.69238;938.7252;;;;
2020/07/15 20:27:15;;;;;;;1.2;1;;;;;;;16.46;81.94336;938.6361;;;;
2020/07/15 20:29:41;;;;;;;1.4;1;;;;;;;16.89;80.06641;938.6633;;;;
2020/07/15 20:32:07;;;;;;;1.3;1;;;;;;;17.04;79.2373;938.6534;;;;
2020/07/15 20:34:31;;;;;;;2.8;0.9;;;;;;;17.05;78.34668;938.5848;;;;
2020/07/15 20:37:05;;;;;;;2.8;1.2;;;;;;;17.13;78.55762;938.7325;;;;